Time;durP1;ratioP1;P1;durP2;ratioP2;P2;SDS_P1;SDS_P2;PMS_P1;PMS_P2;Temp;Humidity;BMP_temperature;BMP_pressure;BME280_temperature;BME280_humidity;BME280_pressure;Samples;Min_cycle;Max_cycle;Signal;HPM_P1;HPM_P2
2021/08/27 00:01:31;;;;;;;1.20;0.47;;;13.70;99.90;;;;;;10361053;28;20111;-59
2021/08/27 00:06:33;;;;;;;4.85;0.50;;;13.60;99.90;;;;;;10358529;28;20046;-59
2021/08/27 00:11:36;;;;;;;1.77;0.40;;;13.60;99.90;;;;;;10363105;28;20050;-59
2021/08/27 00:16:38;;;;;;;2.30;0.50;;;13.50;99.90;;;;;;10360493;28;20061;-59
2021/08/27 00:21:39;;;;;;;3.10;0.43;;;13.50;99.90;;;;;;10359943;28;20108;-59
2021/08/27 00:26:41;;;;;;;1.35;0.40;;;13.40;99.90;;;;;;10362557;28;20551;-59
2021/08/27 00:31:43;;;;;;;2.28;0.47;;;13.40;99.90;;;;;;10363776;28;20116;-59
2021/08/27 00:36:44;;;;;;;3.53;0.50;;;13.40;99.90;;;;;;10363473;28;20369;-59
2021/08/27 00:41:46;;;;;;;2.80;0.52;;;13.30;99.90;;;;;;10368788;28;20069;-59
2021/08/27 00:46:48;;;;;;;0.82;0.52;;;13.40;99.90;;;;;;10367384;28;20081;-59
2021/08/27 00:51:50;;;;;;;1.88;0.45;;;13.40;99.90;;;;;;10363265;28;20112;-59
2021/08/27 00:56:52;;;;;;;0.50;0.40;;;13.40;99.90;;;;;;10369279;28;20054;-59
2021/08/27 01:01:54;;;;;;;2.92;0.60;;;13.30;99.90;;;;;;10369932;28;20041;-59
2021/08/27 01:07:03;;;;;;;2.47;0.47;;;13.40;99.90;;;;;;10364028;28;20484;-60
2021/08/27 01:12:29;;;;;;;4.68;0.50;;;13.40;99.90;;;;;;10366893;28;20404;-61
2021/08/27 01:17:43;;;;;;;3.08;0.40;;;13.40;99.90;;;;;;10378967;28;20084;-60
2021/08/27 01:23:23;;;;;;;4.40;0.60;;;13.40;99.90;;;;;;10365808;28;20045;-60
2021/08/27 01:28:27;;;;;;;3.50;0.50;;;13.40;99.90;;;;;;10272787;28;20081;-60
2021/08/27 01:33:32;;;;;;;1.95;0.60;;;13.40;99.90;;;;;;10363775;28;20050;-60
2021/08/27 01:38:37;;;;;;;4.45;0.40;;;13.40;99.90;;;;;;10366427;28;20108;-60
2021/08/27 01:43:42;;;;;;;3.95;0.50;;;13.40;99.90;;;;;;10365246;28;20065;-60
2021/08/27 01:48:45;;;;;;;4.18;0.63;;;13.30;99.90;;;;;;10364460;28;20083;-60
2021/08/27 01:53:48;;;;;;;3.97;0.77;;;13.30;99.90;;;;;;10370866;28;20077;-60
2021/08/27 01:58:50;;;;;;;2.67;0.50;;;13.20;99.90;;;;;;10357621;28;20444;-60
2021/08/27 02:03:57;;;;;;;0.40;0.40;;;13.20;99.90;;;;;;10360951;28;20141;-60
2021/08/27 02:08:59;;;;;;;1.55;0.50;;;13.20;99.90;;;;;;10362902;28;20100;-60
2021/08/27 02:14:02;;;;;;;4.47;0.50;;;13.20;99.90;;;;;;10364372;28;20056;-60
2021/08/27 02:19:04;;;;;;;3.17;0.80;;;13.20;99.90;;;;;;10367786;28;20081;-60
2021/08/27 02:24:11;;;;;;;3.92;1.23;;;13.30;99.90;;;;;;10367235;28;20453;-60
2021/08/27 02:29:17;;;;;;;2.72;0.60;;;13.30;99.90;;;;;;10366519;28;20552;-60
2021/08/27 02:34:20;;;;;;;3.17;0.82;;;13.30;99.90;;;;;;10364675;28;20073;-60
2021/08/27 02:39:24;;;;;;;2.72;0.50;;;13.30;99.90;;;;;;10364259;28;20470;-60
2021/08/27 02:44:26;;;;;;;2.50;0.40;;;13.30;99.90;;;;;;10367620;28;20131;-60
2021/08/27 02:49:28;;;;;;;5.43;0.50;;;13.20;99.90;;;;;;10361159;28;20139;-61
2021/08/27 02:54:34;;;;;;;5.97;0.50;;;13.20;99.90;;;;;;10363807;28;20073;-60
2021/08/27 02:59:37;;;;;;;3.28;0.50;;;13.10;99.90;;;;;;10364133;28;20091;-60
2021/08/27 03:04:39;;;;;;;9.65;0.50;;;13.00;99.90;;;;;;10360038;28;20076;-60
2021/08/27 03:09:50;;;;;;;2.63;0.47;;;12.90;99.90;;;;;;10363367;28;20073;-60
2021/08/27 03:14:56;;;;;;;3.67;0.57;;;12.90;99.90;;;;;;10356010;28;20077;-61
2021/08/27 03:20:02;;;;;;;2.92;0.50;;;12.80;99.90;;;;;;10360613;28;20188;-61
2021/08/27 03:25:08;;;;;;;1.40;0.30;;;12.80;99.90;;;;;;10364110;28;20054;-61
2021/08/27 03:30:14;;;;;;;1.95;0.52;;;12.70;99.90;;;;;;10365378;28;20616;-61
2021/08/27 03:35:19;;;;;;;2.57;0.40;;;13.40;99.90;;;;;;10362975;28;20050;-61
2021/08/27 03:40:22;;;;;;;1.02;0.30;;;12.60;99.90;;;;;;10361646;28;20288;-61
2021/08/27 03:45:25;;;;;;;4.47;0.30;;;12.60;99.90;;;;;;10361571;28;20104;-61
2021/08/27 03:50:28;;;;;;;2.65;0.25;;;12.60;99.90;;;;;;10359356;28;20111;-61
2021/08/27 03:55:30;;;;;;;3.50;0.38;;;12.60;99.90;;;;;;10360589;28;20046;-61
2021/08/27 04:00:32;;;;;;;6.22;0.40;;;12.60;99.90;;;;;;10362221;28;20413;-61
2021/08/27 04:05:34;;;;;;;4.80;0.40;;;12.70;99.90;;;;;;10362691;28;20170;-61
2021/08/27 04:10:35;;;;;;;5.55;0.60;;;12.60;99.90;;;;;;10365049;28;20117;-61
2021/08/27 04:15:37;;;;;;;3.22;0.47;;;12.70;99.90;;;;;;10369672;28;20109;-61
2021/08/27 04:20:39;;;;;;;2.10;0.40;;;12.70;99.90;;;;;;10366305;28;20563;-60
2021/08/27 04:25:41;;;;;;;5.43;0.50;;;12.70;99.90;;;;;;10370383;28;22186;-61
2021/08/27 04:30:43;;;;;;;0.88;0.38;;;12.70;99.90;;;;;;10364258;28;20060;-65
2021/08/27 04:35:44;;;;;;;4.82;0.60;;;12.70;99.90;;;;;;10367431;28;20045;-67
2021/08/27 04:40:46;;;;;;;7.93;0.90;;;12.80;99.90;;;;;;10361679;28;20057;-67
2021/08/27 04:45:48;;;;;;;6.18;0.43;;;12.70;99.90;;;;;;10366701;28;20121;-67
2021/08/27 04:50:49;;;;;;;3.60;0.60;;;12.70;99.90;;;;;;10366500;28;20724;-66
2021/08/27 04:55:51;;;;;;;3.38;0.73;;;12.60;99.90;;;;;;10369752;28;20042;-67
2021/08/27 05:00:53;;;;;;;3.80;0.40;;;12.60;99.90;;;;;;10382689;28;20092;-66
2021/08/27 05:05:56;;;;;;;2.63;0.93;;;12.60;99.90;;;;;;10369398;28;20053;-66
2021/08/27 05:10:58;;;;;;;5.32;0.95;;;12.70;99.90;;;;;;10367343;28;20061;-66
2021/08/27 05:15:59;;;;;;;2.45;0.52;;;12.80;99.90;;;;;;10360368;28;20553;-66
2021/08/27 05:21:01;;;;;;;2.85;0.50;;;12.80;99.90;;;;;;10367298;28;20148;-66
2021/08/27 05:26:04;;;;;;;4.43;0.68;;;13.00;99.90;;;;;;10372534;28;20658;-66
2021/08/27 05:31:06;;;;;;;3.55;0.80;;;13.20;99.90;;;;;;10366186;28;20050;-66
2021/08/27 05:36:08;;;;;;;4.82;0.63;;;13.40;99.90;;;;;;10366126;28;20045;-66
2021/08/27 05:41:09;;;;;;;3.38;1.20;;;13.60;99.90;;;;;;10368959;28;20100;-66
2021/08/27 05:46:11;;;;;;;3.08;0.57;;;13.70;99.90;;;;;;10367069;28;20116;-66
2021/08/27 05:51:13;;;;;;;4.40;0.77;;;13.80;99.90;;;;;;10363913;28;20046;-66
2021/08/27 05:56:15;;;;;;;2.75;0.90;;;13.90;99.90;;;;;;10362438;28;20085;-66
2021/08/27 06:01:16;;;;;;;5.50;1.00;;;13.80;99.90;;;;;;10362960;28;20135;-66
2021/08/27 06:06:18;;;;;;;3.97;0.70;;;13.80;99.90;;;;;;10366462;28;20046;-66
2021/08/27 06:11:20;;;;;;;4.53;0.88;;;13.90;99.90;;;;;;10370438;28;20091;-67
2021/08/27 06:16:22;;;;;;;4.03;0.90;;;13.90;99.90;;;;;;10361929;28;20049;-67
2021/08/27 06:21:24;;;;;;;2.00;0.75;;;13.90;99.90;;;;;;10364010;28;20118;-66
2021/08/27 06:26:25;;;;;;;2.90;1.02;;;14.00;99.90;;;;;;10361544;28;20078;-66
2021/08/27 06:31:28;;;;;;;2.55;0.80;;;13.90;99.90;;;;;;10362284;28;20068;-66
2021/08/27 06:36:29;;;;;;;3.15;0.75;;;13.90;99.90;;;;;;10376352;28;20050;-67
2021/08/27 06:41:31;;;;;;;1.90;0.93;;;14.00;99.90;;;;;;10364286;28;20135;-69
2021/08/27 06:46:33;;;;;;;2.88;0.70;;;14.10;99.90;;;;;;10368985;28;20625;-68
2021/08/27 06:51:34;;;;;;;4.97;1.10;;;14.20;99.90;;;;;;10369084;28;20046;-68
2021/08/27 06:56:36;;;;;;;3.75;0.98;;;14.10;99.90;;;;;;10365227;28;20058;-68
2021/08/27 07:01:38;;;;;;;2.85;0.70;;;14.20;99.90;;;;;;10359345;28;20135;-68
2021/08/27 07:06:40;;;;;;;3.30;1.70;;;14.40;99.90;;;;;;10361331;28;20123;-68
2021/08/27 07:11:42;;;;;;;3.97;0.70;;;14.60;99.90;;;;;;10361604;28;20053;-68
2021/08/27 07:16:43;;;;;;;0.80;0.60;;;14.60;99.90;;;;;;10358559;28;20045;-68
2021/08/27 07:21:45;;;;;;;3.75;0.60;;;14.60;99.90;;;;;;10359915;28;20107;-68
2021/08/27 07:26:47;;;;;;;3.90;1.08;;;14.80;99.90;;;;;;10362758;28;20045;-68
2021/08/27 07:31:49;;;;;;;6.22;0.60;;;15.00;99.90;;;;;;10364082;28;20053;-68
2021/08/27 07:36:50;;;;;;;2.50;0.40;;;14.90;99.90;;;;;;10361427;28;20069;-68
2021/08/27 07:41:52;;;;;;;4.88;0.50;;;15.00;99.90;;;;;;10364033;28;20050;-68
2021/08/27 07:46:54;;;;;;;2.42;0.55;;;15.00;99.90;;;;;;10367494;28;20103;-68
2021/08/27 07:51:57;;;;;;;4.18;0.70;;;15.00;99.90;;;;;;10377941;28;20389;-68
2021/08/27 07:56:59;;;;;;;2.97;0.60;;;15.00;99.90;;;;;;10372332;28;20099;-68
2021/08/27 08:02:01;;;;;;;4.57;0.82;;;14.90;99.90;;;;;;10374240;28;20073;-68
2021/08/27 08:07:03;;;;;;;6.40;0.77;;;15.00;99.90;;;;;;10385317;28;20045;-68
2021/08/27 08:12:05;;;;;;;3.30;0.70;;;15.00;99.90;;;;;;10379342;28;20526;-67
2021/08/27 08:17:08;;;;;;;3.20;1.00;;;15.00;99.90;;;;;;10375642;28;20115;-67
2021/08/27 08:22:10;;;;;;;2.45;0.50;;;15.10;99.90;;;;;;10377766;28;20053;-67
2021/08/27 08:27:12;;;;;;;4.75;0.60;;;15.30;99.90;;;;;;10380418;28;20127;-67
2021/08/27 08:32:13;;;;;;;5.05;0.60;;;15.20;99.90;;;;;;10386176;28;20564;-67
2021/08/27 08:37:15;;;;;;;1.33;0.50;;;15.30;99.90;;;;;;10376519;28;20643;-67
2021/08/27 08:42:17;;;;;;;1.70;0.40;;;15.30;99.90;;;;;;10374659;28;20057;-67
2021/08/27 08:47:19;;;;;;;2.20;0.52;;;15.60;99.90;;;;;;10376401;28;20077;-67
2021/08/27 08:52:24;;;;;;;0.47;0.40;;;15.60;99.90;;;;;;10373866;28;20049;-67
2021/08/27 08:57:26;;;;;;;3.22;0.40;;;15.80;99.90;;;;;;10370964;28;20390;-67
2021/08/27 09:02:28;;;;;;;1.33;0.32;;;16.20;99.90;;;;;;10368246;28;20443;-67
2021/08/27 09:07:31;;;;;;;2.45;0.40;;;16.20;99.90;;;;;;10370238;28;20398;-67
2021/08/27 09:12:32;;;;;;;1.58;1.15;;;16.30;99.90;;;;;;10365007;28;20143;-67
2021/08/27 09:17:39;;;;;;;1.63;0.40;;;16.30;99.90;;;;;;10366449;28;20128;-67
2021/08/27 09:22:58;;;;;;;;;;;16.20;99.90;;;;;;10369351;28;20065;-67
2021/08/27 09:28:13;;;;;;;6.32;0.60;;;16.60;99.90;;;;;;10365912;28;19929;-66
2021/08/27 09:33:20;;;;;;;2.40;0.55;;;16.40;99.90;;;;;;10375258;28;20060;-66
2021/08/27 09:38:26;;;;;;;1.65;0.50;;;16.40;99.90;;;;;;10366148;28;20074;-65
2021/08/27 09:43:28;;;;;;;2.47;0.47;;;16.60;99.90;;;;;;10366344;28;20049;-65
2021/08/27 09:48:37;;;;;;;1.77;0.25;;;16.50;99.90;;;;;;10364142;28;20053;-66
2021/08/27 09:53:41;;;;;;;1.42;0.30;;;16.50;99.90;;;;;;10362283;28;20045;-66
2021/08/27 09:58:55;;;;;;;2.00;0.80;;;16.40;99.90;;;;;;10364711;28;20049;-66
2021/08/27 10:04:05;;;;;;;2.40;0.40;;;16.50;99.90;;;;;;10363412;28;20100;-66
2021/08/27 10:09:07;;;;;;;3.28;0.50;;;16.70;99.90;;;;;;10361218;28;20054;-65
2021/08/27 10:14:10;;;;;;;0.65;0.40;;;16.70;99.90;;;;;;10362744;28;20114;-65
2021/08/27 10:19:13;;;;;;;3.10;0.52;;;16.60;99.90;;;;;;10368570;28;20502;-65
2021/08/27 10:24:15;;;;;;;3.40;0.80;;;16.90;99.90;;;;;;10360891;28;20691;-65
2021/08/27 10:29:19;;;;;;;4.07;1.08;;;16.90;99.90;;;;;;10360459;28;20059;-65
2021/08/27 10:34:40;;;;;;;4.40;0.88;;;16.70;99.90;;;;;;10361211;28;20441;-65
2021/08/27 10:39:51;;;;;;;1.30;0.80;;;16.80;99.90;;;;;;10367519;28;20063;-66
2021/08/27 10:44:53;;;;;;;1.38;0.73;;;16.80;99.90;;;;;;10368173;28;21021;-68
2021/08/27 10:49:56;;;;;;;3.53;0.90;;;17.00;99.90;;;;;;10365302;28;20123;-69
2021/08/27 10:55:10;;;;;;;2.45;0.90;;;17.20;99.90;;;;;;10364124;28;20069;-71
2021/08/27 11:00:12;;;;;;;4.20;1.08;;;17.30;99.90;;;;;;10359628;28;20103;-69
2021/08/27 11:05:30;;;;;;;1.52;0.80;;;17.10;99.90;;;;;;10362042;28;20053;-69
2021/08/27 11:10:34;;;;;;;1.52;0.82;;;17.30;99.90;;;;;;10358679;28;20447;-69
2021/08/27 11:15:36;;;;;;;3.38;0.90;;;17.40;99.90;;;;;;10366072;28;20514;-69
2021/08/27 11:20:38;;;;;;;2.13;1.00;;;17.50;99.90;;;;;;10359237;28;20184;-69
2021/08/27 11:26:02;;;;;;;2.85;1.30;;;18.10;99.90;;;;;;10365961;28;20065;-70
2021/08/27 11:31:12;;;;;;;2.25;1.33;;;18.40;99.90;;;;;;10362930;28;20099;-69
2021/08/27 11:36:15;;;;;;;3.50;1.30;;;18.20;99.90;;;;;;10359245;28;20063;-69
2021/08/27 11:41:17;;;;;;;4.20;1.58;;;18.30;99.90;;;;;;10354607;28;20049;-69
2021/08/27 11:46:23;;;;;;;4.97;1.50;;;18.30;99.90;;;;;;10361736;28;20061;-69
2021/08/27 11:51:33;;;;;;;2.67;1.30;;;18.10;99.90;;;;;;10361519;28;20140;-69
2021/08/27 11:56:35;;;;;;;3.60;1.10;;;18.00;99.90;;;;;;10360744;28;20117;-69
2021/08/27 12:01:36;;;;;;;2.90;1.10;;;18.50;99.80;;;;;;10362218;28;20054;-68
2021/08/27 12:06:38;;;;;;;3.42;1.10;;;18.90;99.90;;;;;;10364180;28;20741;-69
2021/08/27 12:11:40;;;;;;;2.22;1.20;;;19.00;98.90;;;;;;10361268;28;20045;-69
2021/08/27 12:16:43;;;;;;;2.35;1.40;;;18.80;99.10;;;;;;10364094;28;20049;-70
2021/08/27 12:22:01;;;;;;;3.00;1.00;;;18.40;99.40;;;;;;10343362;28;20562;-69
2021/08/27 12:27:03;;;;;;;2.58;0.80;;;18.50;99.60;;;;;;10361578;28;20127;-69
2021/08/27 12:32:06;;;;;;;2.15;1.10;;;18.20;99.10;;;;;;10343555;28;20100;-69
2021/08/27 12:37:08;;;;;;;1.40;0.77;;;18.40;99.90;;;;;;10369482;28;20479;-69
2021/08/27 12:42:11;;;;;;;1.20;0.52;;;18.50;99.90;;;;;;10369120;28;20053;-70
2021/08/27 12:47:28;;;;;;;1.17;0.60;;;18.10;99.70;;;;;;10363125;28;22799;-68
2021/08/27 12:52:30;;;;;;;3.38;1.30;;;18.20;99.90;;;;;;10369511;28;20053;-67
2021/08/27 12:57:46;;;;;;;0.95;0.82;;;18.20;99.90;;;;;;10368182;28;20048;-67
2021/08/27 13:02:48;;;;;;;1.77;0.70;;;18.20;99.90;;;;;;10364085;28;20753;-66
2021/08/27 13:08:07;;;;;;;1.30;0.75;;;18.00;99.90;;;;;;10366969;28;20188;-67
2021/08/27 13:13:31;;;;;;;1.17;0.60;;;17.90;99.90;;;;;;10373473;28;20050;-66
2021/08/27 13:18:44;;;;;;;0.77;0.65;;;17.80;99.90;;;;;;10367694;28;20513;-66
2021/08/27 13:24:06;;;;;;;2.17;0.90;;;17.70;99.90;;;;;;10366692;28;20041;-66
2021/08/27 13:29:08;;;;;;;2.30;1.30;;;17.80;99.90;;;;;;10362639;28;20049;-67
2021/08/27 13:34:10;;;;;;;1.98;0.82;;;17.90;99.90;;;;;;10384188;28;20050;-67
2021/08/27 13:39:12;;;;;;;3.90;0.70;;;17.90;99.90;;;;;;10368193;28;20095;-67
2021/08/27 13:44:14;;;;;;;4.20;1.00;;;18.00;99.90;;;;;;10362420;28;20076;-67
2021/08/27 13:49:16;;;;;;;2.65;0.80;;;18.10;99.90;;;;;;10363910;28;20049;-67
2021/08/27 13:54:18;;;;;;;1.88;0.80;;;18.30;99.90;;;;;;10367064;28;20053;-67
2021/08/27 13:59:21;;;;;;;1.23;0.80;;;18.60;99.90;;;;;;10367126;28;20053;-67
2021/08/27 14:04:23;;;;;;;2.15;1.00;;;18.50;99.70;;;;;;10366673;28;20046;-67
2021/08/27 14:09:25;;;;;;;1.30;1.00;;;18.40;99.90;;;;;;10361733;28;20046;-67
2021/08/27 14:14:26;;;;;;;3.25;1.00;;;18.20;99.90;;;;;;10382384;28;20549;-67
2021/08/27 14:19:28;;;;;;;3.40;1.00;;;18.30;99.90;;;;;;10362818;28;20054;-67
2021/08/27 14:24:30;;;;;;;1.27;0.55;;;18.30;99.90;;;;;;10364786;28;20053;-67
2021/08/27 14:29:32;;;;;;;1.15;0.60;;;18.00;99.90;;;;;;10364717;28;20417;-66
2021/08/27 14:34:34;;;;;;;2.13;0.98;;;17.20;99.90;;;;;;10369162;28;20050;-68
2021/08/27 14:39:36;;;;;;;2.85;1.20;;;16.80;99.90;;;;;;10362476;28;20754;-67
2021/08/27 14:44:38;;;;;;;1.92;1.10;;;16.50;99.90;;;;;;10364064;28;20056;-67
2021/08/27 14:49:40;;;;;;;2.13;1.25;;;16.00;99.90;;;;;;10367738;28;20061;-69
2021/08/27 14:54:41;;;;;;;1.48;1.25;;;15.70;99.90;;;;;;10357693;28;20100;-70
2021/08/27 14:59:43;;;;;;;3.22;1.60;;;15.50;99.90;;;;;;10341198;28;20061;-70
2021/08/27 15:04:45;;;;;;;3.88;2.03;;;15.20;99.90;;;;;;10362041;28;20061;-69
2021/08/27 15:09:46;;;;;;;7.45;2.13;;;15.00;99.90;;;;;;10365767;28;20118;-69
2021/08/27 15:14:49;;;;;;;2.00;1.00;;;14.90;99.90;;;;;;10365244;28;20107;-69
2021/08/27 15:19:51;;;;;;;1.25;1.15;;;15.30;99.90;;;;;;10365145;28;20111;-67
2021/08/27 15:24:52;;;;;;;1.60;1.17;;;15.50;99.90;;;;;;10357191;28;20508;-68
2021/08/27 15:29:54;;;;;;;2.33;1.30;;;15.80;99.90;;;;;;10363661;28;20089;-68
2021/08/27 15:34:56;;;;;;;1.33;1.00;;;16.20;99.90;;;;;;10364008;28;20136;-68
2021/08/27 15:39:58;;;;;;;2.90;1.10;;;16.50;99.90;;;;;;10355224;28;20050;-67
2021/08/27 15:45:00;;;;;;;4.20;0.80;;;16.70;99.90;;;;;;10367475;28;20050;-65
2021/08/27 15:50:02;;;;;;;2.38;0.95;;;16.70;99.90;;;;;;10365283;28;20060;-65
2021/08/27 15:55:05;;;;;;;2.42;0.40;;;17.20;99.90;;;;;;10363807;28;20666;-65
2021/08/27 16:00:08;;;;;;;2.90;0.50;;;17.10;99.90;;;;;;10362283;28;20053;-65
2021/08/27 16:05:10;;;;;;;0.70;0.30;;;17.00;99.90;;;;;;10361727;28;20057;-65
2021/08/27 16:10:12;;;;;;;1.33;0.50;;;16.90;99.90;;;;;;10370652;28;20045;-65
2021/08/27 16:15:14;;;;;;;0.52;0.40;;;16.70;99.90;;;;;;10371163;28;20049;-66
2021/08/27 16:20:16;;;;;;;2.25;0.50;;;16.40;99.90;;;;;;10372334;28;20058;-66
2021/08/27 16:25:17;;;;;;;3.33;0.73;;;16.40;99.90;;;;;;10372949;28;20049;-66
2021/08/27 16:30:19;;;;;;;1.50;0.40;;;16.20;99.90;;;;;;10369421;28;20544;-66
2021/08/27 16:35:21;;;;;;;1.00;0.50;;;16.00;99.90;;;;;;10370614;28;20526;-66
2021/08/27 16:40:22;;;;;;;2.47;0.73;;;15.60;99.90;;;;;;10366275;28;20069;-66
2021/08/27 16:45:24;;;;;;;2.60;0.50;;;15.50;99.90;;;;;;10369464;28;20587;-66
2021/08/27 16:50:28;;;;;;;4.03;0.70;;;15.50;99.90;;;;;;10368748;28;20057;-66
2021/08/27 16:55:30;;;;;;;3.50;0.70;;;15.50;99.90;;;;;;10366745;28;20127;-66
2021/08/27 17:00:32;;;;;;;5.40;1.08;;;15.50;99.90;;;;;;10365282;28;20049;-66
2021/08/27 17:05:33;;;;;;;2.72;1.00;;;15.60;99.90;;;;;;10375266;28;20116;-66
2021/08/27 17:10:35;;;;;;;4.00;0.90;;;15.60;99.90;;;;;;10366899;28;20105;-66
2021/08/27 17:15:37;;;;;;;4.03;0.95;;;15.60;99.90;;;;;;10369328;28;20103;-66
2021/08/27 17:20:39;;;;;;;5.03;0.70;;;15.60;99.90;;;;;;10368590;28;20562;-66
2021/08/27 17:25:41;;;;;;;0.35;0.35;;;15.70;99.90;;;;;;10368262;28;20050;-66
2021/08/27 17:30:43;;;;;;;1.48;0.50;;;15.80;99.90;;;;;;10367659;28;20045;-67
2021/08/27 17:35:44;;;;;;;0.95;0.50;;;15.80;99.90;;;;;;10369797;28;20053;-67
2021/08/27 17:40:46;;;;;;;0.45;0.20;;;15.70;99.90;;;;;;10366980;28;20050;-67
2021/08/27 17:45:48;;;;;;;1.67;0.60;;;15.80;99.90;;;;;;10372378;28;20432;-67
2021/08/27 17:50:49;;;;;;;1.75;0.70;;;15.70;99.90;;;;;;10365932;28;20378;-67
2021/08/27 17:55:52;;;;;;;1.05;0.60;;;15.70;99.90;;;;;;10362570;28;20052;-67
2021/08/27 18:01:15;;;;;;;1.30;0.70;;;15.60;99.90;;;;;;10366171;28;20049;-67
2021/08/27 18:06:18;;;;;;;0.50;0.43;;;15.70;99.90;;;;;;10382583;28;20076;-67
2021/08/27 18:11:19;;;;;;;2.20;0.70;;;15.70;99.90;;;;;;10364347;28;20050;-67
2021/08/27 18:16:22;;;;;;;3.63;0.65;;;15.60;99.90;;;;;;10365889;28;20112;-67
2021/08/27 18:21:25;;;;;;;2.15;0.95;;;15.50;99.90;;;;;;10359983;28;20046;-67
2021/08/27 18:26:27;;;;;;;2.80;0.80;;;15.60;99.90;;;;;;10360009;28;20050;-67
2021/08/27 18:31:29;;;;;;;9.20;3.00;;;15.60;99.90;;;;;;10353066;28;20678;-67
2021/08/27 18:36:31;;;;;;;4.03;1.02;;;15.50;99.90;;;;;;10365296;28;20508;-67
2021/08/27 18:41:33;;;;;;;2.55;0.82;;;15.50;99.90;;;;;;10363692;28;20100;-67
2021/08/27 18:46:36;;;;;;;1.80;0.38;;;15.40;99.90;;;;;;10362418;28;20840;-67
2021/08/27 18:51:37;;;;;;;0.77;0.40;;;15.40;99.90;;;;;;10361336;28;20188;-68
2021/08/27 18:56:39;;;;;;;0.35;0.30;;;15.30;99.90;;;;;;10350832;28;20048;-60
2021/08/27 19:01:42;;;;;;;1.90;0.35;;;15.30;99.90;;;;;;10356981;28;20146;-62
2021/08/27 19:06:44;;;;;;;2.15;0.70;;;15.20;99.90;;;;;;10365018;28;20041;-59
2021/08/27 19:11:45;;;;;;;1.25;0.43;;;15.10;99.90;;;;;;10355023;28;20053;-61
2021/08/27 19:16:47;;;;;;;3.67;0.50;;;15.10;99.90;;;;;;10363158;28;20532;-61
2021/08/27 19:21:49;;;;;;;1.80;0.63;;;15.10;99.90;;;;;;10359719;28;20108;-61
2021/08/27 19:26:50;;;;;;;0.57;0.47;;;15.10;99.90;;;;;;10361581;28;20099;-59
2021/08/27 19:31:52;;;;;;;1.98;0.45;;;15.00;99.90;;;;;;10363871;28;20104;-59
2021/08/27 19:36:54;;;;;;;1.52;0.40;;;15.00;99.90;;;;;;10360786;28;20069;-60
2021/08/27 19:41:55;;;;;;;2.17;0.40;;;15.10;99.90;;;;;;10361831;28;20049;-60
2021/08/27 19:46:57;;;;;;;0.85;0.40;;;15.20;99.90;;;;;;10363364;28;20093;-60
2021/08/27 19:51:59;;;;;;;2.22;0.38;;;15.20;99.90;;;;;;10359021;28;20057;-61
2021/08/27 19:57:00;;;;;;;0.40;0.20;;;15.20;99.90;;;;;;10358730;28;20049;-60
2021/08/27 20:02:02;;;;;;;0.63;0.40;;;15.20;99.90;;;;;;10363555;28;20050;-61
2021/08/27 20:07:04;;;;;;;0.60;0.40;;;15.20;99.90;;;;;;10360322;28;20073;-61
2021/08/27 20:12:07;;;;;;;1.23;0.40;;;15.20;99.90;;;;;;10357259;28;20085;-62
2021/08/27 20:17:09;;;;;;;0.70;0.40;;;15.20;99.90;;;;;;10364363;28;20098;-61
2021/08/27 20:22:10;;;;;;;3.65;0.35;;;15.10;99.90;;;;;;10358439;28;20220;-61
2021/08/27 20:27:12;;;;;;;1.00;0.28;;;15.00;99.90;;;;;;10359946;28;21858;-61
2021/08/27 20:32:14;;;;;;;0.55;0.40;;;15.00;99.90;;;;;;10362992;28;20056;-61
2021/08/27 20:37:15;;;;;;;0.90;0.30;;;15.00;99.90;;;;;;10355992;28;20148;-61
2021/08/27 20:42:17;;;;;;;1.20;0.30;;;14.90;99.90;;;;;;10361320;28;20050;-60
2021/08/27 20:47:19;;;;;;;1.17;0.50;;;14.80;99.90;;;;;;10360364;28;20057;-61
2021/08/27 20:52:20;;;;;;;1.95;0.75;;;14.80;99.90;;;;;;10353884;28;20470;-62
2021/08/27 20:57:22;;;;;;;2.25;0.30;;;14.80;99.90;;;;;;10370825;28;20054;-62
2021/08/27 21:02:24;;;;;;;0.93;0.22;;;14.80;99.90;;;;;;10371362;28;20046;-62
2021/08/27 21:07:26;;;;;;;1.38;0.22;;;14.80;99.90;;;;;;10363527;28;20084;-60
2021/08/27 21:12:27;;;;;;;0.85;0.38;;;14.80;99.90;;;;;;10370431;28;23168;-60
2021/08/27 21:17:29;;;;;;;0.60;0.30;;;14.80;99.90;;;;;;10369323;28;20077;-60
2021/08/27 21:22:31;;;;;;;0.73;0.30;;;14.80;99.90;;;;;;10366602;28;20081;-61
2021/08/27 21:27:32;;;;;;;2.83;0.38;;;14.70;99.90;;;;;;10364651;28;20771;-63
2021/08/27 21:32:38;;;;;;;1.25;0.40;;;14.80;99.90;;;;;;10367250;28;20041;-61
2021/08/27 21:37:39;;;;;;;1.33;0.50;;;14.70;99.90;;;;;;10367014;28;20041;-61
2021/08/27 21:42:41;;;;;;;1.92;0.70;;;14.70;99.90;;;;;;10371166;28;20053;-61
2021/08/27 21:47:44;;;;;;;2.30;0.65;;;14.60;99.90;;;;;;10366284;28;20468;-61
2021/08/27 21:52:46;;;;;;;1.30;0.40;;;14.60;99.90;;;;;;10365644;28;20119;-61
2021/08/27 21:57:48;;;;;;;1.05;0.50;;;14.70;99.90;;;;;;10366632;28;20065;-61
2021/08/27 22:02:50;;;;;;;1.58;0.30;;;14.60;99.90;;;;;;10363840;28;20053;-60
2021/08/27 22:07:52;;;;;;;0.98;0.52;;;14.60;99.90;;;;;;10361658;28;20096;-60
2021/08/27 22:12:54;;;;;;;1.67;0.50;;;14.60;99.90;;;;;;10364731;28;20046;-61
2021/08/27 22:17:56;;;;;;;2.20;0.55;;;14.50;99.90;;;;;;10369700;28;20130;-60
2021/08/27 22:23:00;;;;;;;1.45;0.50;;;14.50;99.90;;;;;;10362317;28;20056;-61
2021/08/27 22:28:02;;;;;;;2.90;0.40;;;14.50;99.90;;;;;;10363713;28;20088;-61
2021/08/27 22:33:04;;;;;;;0.65;0.38;;;14.50;99.90;;;;;;10368107;28;20496;-62
2021/08/27 22:38:05;;;;;;;0.70;0.47;;;14.50;99.90;;;;;;10356555;28;20128;-61
2021/08/27 22:43:07;;;;;;;2.03;0.50;;;14.50;99.90;;;;;;10364668;28;20131;-61
2021/08/27 22:48:09;;;;;;;1.13;0.50;;;14.50;99.90;;;;;;10359795;28;20144;-61
2021/08/27 22:53:11;;;;;;;4.00;0.50;;;14.40;99.90;;;;;;10351494;28;20123;-61
2021/08/27 22:58:13;;;;;;;0.80;0.47;;;14.40;99.90;;;;;;10324290;28;20181;-61
2021/08/27 23:03:14;;;;;;;0.52;0.40;;;14.50;99.90;;;;;;10365876;28;20053;-61
2021/08/27 23:08:16;;;;;;;1.98;0.70;;;14.40;99.90;;;;;;10361240;28;20058;-61
2021/08/27 23:13:18;;;;;;;1.70;0.45;;;14.40;99.90;;;;;;10365946;28;20104;-61
2021/08/27 23:18:20;;;;;;;0.90;0.60;;;14.40;99.90;;;;;;10360541;28;20123;-62
2021/08/27 23:23:21;;;;;;;2.30;0.40;;;14.40;99.90;;;;;;10358621;28;20081;-62
2021/08/27 23:28:23;;;;;;;1.55;0.60;;;14.40;99.90;;;;;;10362342;28;20077;-61
2021/08/27 23:33:25;;;;;;;0.65;0.30;;;14.50;99.90;;;;;;10358854;28;20174;-61
2021/08/27 23:38:26;;;;;;;0.90;0.80;;;14.50;99.90;;;;;;10364870;28;20088;-61
2021/08/27 23:43:28;;;;;;;1.95;0.43;;;14.40;99.90;;;;;;10364509;28;20115;-61
2021/08/27 23:48:30;;;;;;;1.20;0.50;;;14.40;99.90;;;;;;10368521;28;20450;-61
2021/08/27 23:53:31;;;;;;;1.38;0.60;;;14.30;99.90;;;;;;10360938;28;20077;-61
2021/08/27 23:58:33;;;;;;;0.47;0.38;;;14.20;99.90;;;;;;10366945;28;20111;-61
